»·PEaware :: AAL465 KPHX-KSAN

AAL465 :: KPHX-KSAN

FLIGHT INFORMATION

Flight Status: Arrived
Operator:
American Airlines
More flights by this operator :: More flights under this callsign
Pilot: Ben F. (2808)
Aircraft: MCDONNELL-DOUGLAS MD-82
(MD82)
More flights by this aircraft type
Origin: KPHX Phoenix Sky Harbor Intl
United States
Destination: KSAN San Diego Intl-Lindbergh
United States
More flights between these airports :: More routes between these airports
Route: +JUDTH6 MOHAK J2 HOGGZ LUCKI1
File this flight plan on PilotEdge
Remarks:
Altitude:
(Current/Filed)
32,000ft
Speed:
(Current/Filed)
440kts
Departed: 29-Apr-18 07:37 AM
Arrived: 29-Apr-18 08:33 AM
Distance/Time
Traveled:
264nm/0:56
Distance/Time
To Go:
Arrived

Flight Plot

Page will automatically refresh every two minutes.

Flight plan parsing failed; only flown route is shown


Map Options




Map Legend


Flown Route
Filed Route
Departure Airport
Arrival Airport
Navaid (VOR, NDB)
Fix

Horizontal Profiles

Position Reports

Time Latitude Longitude Heading Altitude Ground
Speed
29-Apr-18 07:15 33.437204 -111.998616 268 1144ft 0kts
29-Apr-18 07:16 33.437204 -111.998616 268 1144ft 0kts
29-Apr-18 07:17 33.437204 -111.998616 268 1144ft 0kts
29-Apr-18 07:18 33.437204 -111.998616 268 1144ft 0kts
29-Apr-18 07:19 33.437204 -111.998616 268 1144ft 0kts
29-Apr-18 07:20 33.437204 -111.998616 268 1144ft 0kts
29-Apr-18 07:21 33.437204 -111.998616 268 1144ft 0kts
29-Apr-18 07:22 33.437204 -111.998616 268 1144ft 0kts
29-Apr-18 07:23 33.437204 -111.998616 268 1144ft 0kts
29-Apr-18 07:24 33.437199 -111.998243 278 1144ft 2kts
29-Apr-18 07:25 33.436817 -111.997413 320 1144ft 2kts
29-Apr-18 07:26 33.436803 -111.997400 321 1144ft 0kts
29-Apr-18 07:27 33.437277 -111.997769 343 1144ft 0kts
29-Apr-18 07:28 33.437723 -111.997800 358 1144ft 5kts
29-Apr-18 07:29 33.438272 -111.997800 358 1144ft 6kts
29-Apr-18 07:30 33.439001 -112.003923 269 1144ft 24kts
29-Apr-18 07:31 33.438997 -112.011265 270 1144ft 20kts
29-Apr-18 07:32 33.439001 -112.017366 270 1144ft 16kts
29-Apr-18 07:33 33.438983 -112.025104 270 1144ft 23kts
29-Apr-18 07:34 33.439344 -112.029598 338 1144ft 5kts
29-Apr-18 07:35 33.440834 -112.028570 89 1144ft 0kts
29-Apr-18 07:36 33.440625 -111.996747 92 1265ft 144kts
29-Apr-18 07:37 33.437004 -111.945379 97 3820ft 161kts
29-Apr-18 07:38 33.433503 -111.880156 108 5095ft 244kts
29-Apr-18 07:39 33.379587 -111.846066 200 8089ft 242kts
29-Apr-18 07:40 33.342456 -111.905569 273 11250ft 253kts
29-Apr-18 07:41 33.357711 -111.994897 266 12706ft 308kts
29-Apr-18 07:42 33.320411 -112.090649 234 14663ft 329kts
29-Apr-18 07:43 33.265248 -112.180359 233 16886ft 341kts
29-Apr-18 07:44 33.207608 -112.273168 234 18850ft 354kts
29-Apr-18 07:45 33.148099 -112.369582 235 20614ft 365kts
29-Apr-18 07:46 33.086865 -112.468536 235 22201ft 376kts
29-Apr-18 07:47 33.023112 -112.569980 235 23653ft 386kts
29-Apr-18 07:48 32.959145 -112.674160 241 25021ft 392kts
29-Apr-18 07:49 32.935460 -112.799406 265 26275ft 393kts
29-Apr-18 07:50 32.923588 -112.930187 262 27394ft 399kts
29-Apr-18 07:51 32.906208 -113.061408 261 28361ft 403kts
29-Apr-18 07:52 32.887969 -113.193764 261 29273ft 406kts
29-Apr-18 07:53 32.869758 -113.325563 261 30434ft 401kts
29-Apr-18 07:54 32.851410 -113.455527 261 31519ft 397kts
29-Apr-18 07:55 32.833434 -113.586012 261 31990ft 407kts
29-Apr-18 07:56 32.814898 -113.718065 261 31985ft 406kts
29-Apr-18 07:57 32.795608 -113.850006 261 31983ft 407kts
29-Apr-18 07:58 32.776764 -113.982520 264 31981ft 405kts
29-Apr-18 07:59 32.776288 -114.115927 274 31980ft 404kts
29-Apr-18 08:00 32.784154 -114.249095 273 31978ft 404kts
29-Apr-18 08:01 32.789821 -114.382334 277 31976ft 394kts
29-Apr-18 08:02 32.821360 -114.508468 289 31978ft 406kts
29-Apr-18 08:03 32.845066 -114.637057 258 31979ft 406kts
29-Apr-18 08:04 32.789926 -114.755125 251 31982ft 408kts
29-Apr-18 08:05 32.778291 -114.887185 272 31988ft 404kts
29-Apr-18 08:06 32.780078 -115.020992 269 31990ft 404kts
29-Apr-18 08:07 32.777120 -115.154476 269 31993ft 404kts
29-Apr-18 08:08 32.774768 -115.287997 269 31997ft 405kts
29-Apr-18 08:09 32.772463 -115.420495 269 30820ft 399kts
29-Apr-18 08:10 32.770274 -115.552282 268 28239ft 394kts
29-Apr-18 08:11 32.767597 -115.679450 268 25702ft 376kts
29-Apr-18 08:12 32.765358 -115.801342 268 23142ft 361kts
29-Apr-18 08:13 32.763275 -115.914501 268 20882ft 323kts
29-Apr-18 08:14 32.760148 -116.017713 267 18388ft 302kts
29-Apr-18 08:15 32.757965 -116.114703 268 15893ft 287kts
29-Apr-18 08:16 32.756104 -116.209078 268 13670ft 290kts
29-Apr-18 08:17 32.753411 -116.306580 266 11625ft 294kts
29-Apr-18 08:18 32.744994 -116.401916 265 10097ft 281kts
29-Apr-18 08:19 32.737559 -116.492468 265 9899ft 282kts
29-Apr-18 08:20 32.729300 -116.579691 264 8542ft 261kts
29-Apr-18 08:21 32.718975 -116.664094 255 7914ft 260kts
29-Apr-18 08:22 32.691536 -116.742380 242 6545ft 245kts
29-Apr-18 08:23 32.659287 -116.808703 242 5316ft 217kts
29-Apr-18 08:24 32.629742 -116.868835 241 4460ft 198kts
29-Apr-18 08:25 32.607694 -116.923761 282 4835ft 186kts
29-Apr-18 08:26 32.655134 -116.930763 12 3980ft 189kts
29-Apr-18 08:27 32.692734 -116.950824 284 3962ft 181kts
29-Apr-18 08:28 32.693058 -117.007443 269 3307ft 164kts
29-Apr-18 08:29 32.697913 -117.060524 289 2316ft 160kts
29-Apr-18 08:30 32.715457 -117.111533 284 1369ft 183kts
29-Apr-18 08:31 32.727408 -117.163779 281 368ft 150kts
29-Apr-18 08:32 32.735330 -117.197600 253 24ft 15kts
29-Apr-18 08:33 32.735250 -117.201015 286 24ft 10kts
29-Apr-18 08:34 32.735180 -117.204005 251 24ft 8kts
29-Apr-18 08:35 32.734773 -117.204221 177 24ft 0kts
29-Apr-18 08:36 32.734770 -117.204221 177 24ft 0kts

Navigation Log

Ident Type
Flight plan parsing failed, navigation log unavailable